Time;durP1;ratioP1;P1;durP2;ratioP2;P2;SDS_P1;SDS_P2;PMS_P1;PMS_P2;Temp;Humidity;BMP_temperature;BMP_pressure;BME280_temperature;BME280_humidity;BME280_pressure;Samples;Min_cycle;Max_cycle;Signal;HPM_P1;HPM_P2
2022/01/08 00:02:09;;;;;;;;;;;2.80;99.90;;;;;;5026483;28;19917;-69
2022/01/08 00:04:35;;;;;;;;;;;2.70;99.90;;;;;;5026843;28;19910;-70
2022/01/08 00:07:01;;;;;;;;;;;2.70;99.90;;;;;;5025857;28;19959;-70
2022/01/08 00:09:26;;;;;;;;;;;2.60;99.90;;;;;;5023688;28;19924;-71
2022/01/08 00:11:51;;;;;;;;;;;2.60;99.90;;;;;;5014038;28;19909;-72
2022/01/08 00:14:21;;;;;;;;;;;2.50;99.90;;;;;;5006543;28;20163;-73
2022/01/08 00:16:46;;;;;;;;;;;2.60;99.90;;;;;;5017351;28;19913;-70
2022/01/08 00:19:11;;;;;;;;;;;2.60;99.90;;;;;;5014275;28;19913;-69
2022/01/08 00:21:37;;;;;;;;;;;2.70;99.90;;;;;;5007068;28;20363;-70
2022/01/08 00:24:03;;;;;;;;;;;2.70;99.90;;;;;;5021897;28;19913;-71
2022/01/08 00:26:28;;;;;;;;;;;2.80;99.90;;;;;;5016935;28;19921;-70
2022/01/08 00:28:54;;;;;;;;;;;2.80;99.90;;;;;;5020379;28;19917;-70
2022/01/08 00:31:19;;;;;;;;;;;2.70;99.90;;;;;;5020163;28;19910;-68
2022/01/08 00:33:47;;;;;;;;;;;2.80;99.90;;;;;;5019414;28;20248;-69
2022/01/08 00:36:13;;;;;;;;;;;2.80;99.90;;;;;;4998529;28;19963;-70
2022/01/08 00:38:39;;;;;;;;;;;2.90;99.90;;;;;;4998280;28;19949;-69
2022/01/08 00:41:05;;;;;;;;;;;2.80;99.90;;;;;;5035354;28;19924;-69
2022/01/08 00:43:30;;;;;;;;;;;2.70;99.90;;;;;;5036301;28;20378;-70
2022/01/08 00:45:56;;;;;;;;;;;2.70;99.90;;;;;;5045673;28;19924;-70
2022/01/08 00:48:22;;;;;;;;;;;2.80;99.90;;;;;;5028720;28;19919;-67
2022/01/08 00:50:47;;;;;;;;;;;2.80;99.90;;;;;;5027723;28;20560;-68
2022/01/08 00:53:12;;;;;;;;;;;2.60;99.90;;;;;;5027170;28;19909;-70
2022/01/08 00:55:38;;;;;;;;;;;2.50;99.90;;;;;;5028349;28;19959;-67
2022/01/08 00:58:04;;;;;;;;;;;2.40;99.90;;;;;;5026758;28;19924;-70
2022/01/08 01:00:29;;;;;;;;;;;2.40;99.90;;;;;;5030213;28;19913;-70
2022/01/08 01:02:54;;;;;;;;;;;2.30;99.90;;;;;;5025679;28;19917;-71
2022/01/08 01:05:21;;;;;;;;;;;2.30;99.90;;;;;;5026084;28;19963;-71
2022/01/08 01:07:46;;;;;;;;;;;2.30;99.90;;;;;;5025455;28;20358;-69
2022/01/08 01:10:12;;;;;;;;;;;2.30;99.90;;;;;;5025434;28;19993;-69
2022/01/08 01:12:38;;;;;;;;;;;2.40;99.90;;;;;;5008134;28;19913;-70
2022/01/08 01:15:03;;;;;;;;;;;2.40;99.90;;;;;;5026141;28;19916;-70
2022/01/08 01:17:29;;;;;;;;;;;2.40;99.90;;;;;;5024445;28;19932;-70
2022/01/08 01:19:54;;;;;;;;;;;2.40;99.90;;;;;;5046096;28;19912;-69
2022/01/08 01:22:24;;;;;;;;;;;2.40;99.90;;;;;;5034297;28;19917;-67
2022/01/08 01:24:51;;;;;;;;;;;2.50;99.90;;;;;;5025014;28;19917;-69
2022/01/08 01:27:52;;;;;;;;;;;2.50;99.90;;;;;;5025757;28;19996;-68
2022/01/08 01:30:31;;;;;;;;;;;2.50;99.90;;;;;;5030464;28;20374;-67
2022/01/08 01:41:23;;;;;;;;;;;2.50;99.90;;;;;;5026054;28;19967;-67
2022/01/08 01:48:51;;;;;;;;;;;2.50;99.90;;;;;;5025149;28;19916;-73
2022/01/08 01:51:21;;;;;;;;;;;2.50;99.90;;;;;;5025812;28;19980;-72
2022/01/08 01:53:47;;;;;;;;;;;2.50;99.90;;;;;;5018974;28;19917;-70
2022/01/08 01:56:14;;;;;;;;;;;2.50;99.90;;;;;;5029564;28;19909;-72
2022/01/08 01:58:40;;;;;;;;;;;2.50;99.90;;;;;;5040592;28;20055;-67
2022/01/08 02:01:05;;;;;;;;;;;2.50;99.90;;;;;;5043882;28;19913;-70
2022/01/08 02:03:31;;;;;;;;;;;2.50;99.90;;;;;;5028222;28;19925;-70
2022/01/08 02:05:56;;;;;;;;;;;2.50;99.90;;;;;;5033324;28;19913;-69
2022/01/08 02:08:22;;;;;;;;;;;2.50;99.90;;;;;;5031090;28;20456;-68
2022/01/08 02:10:47;;;;;;;;;;;2.50;99.90;;;;;;5016409;28;19924;-67
2022/01/08 02:13:22;;;;;;;;;;;2.50;99.90;;;;;;5037222;28;20397;-71
2022/01/08 02:15:52;;;;;;;;;;;2.50;99.90;;;;;;5031704;28;20024;-73
2022/01/08 02:18:17;;;;;;;;;;;2.50;99.90;;;;;;5036763;28;20067;-71
2022/01/08 02:20:43;;;;;;;;;;;2.60;99.90;;;;;;5008297;28;20269;-68
2022/01/08 02:23:08;;;;;;;;;;;2.60;99.90;;;;;;5026887;28;20294;-69
2022/01/08 02:25:34;;;;;;;;;;;2.50;99.90;;;;;;5025751;28;20424;-69
2022/01/08 02:28:03;;;;;;;;;;;2.50;99.90;;;;;;5007652;28;19972;-69
2022/01/08 02:30:28;;;;;;;;;;;2.50;99.90;;;;;;5042708;28;19917;-68
2022/01/08 02:32:54;;;;;;;;;;;2.50;99.90;;;;;;5003379;28;20280;-69
2022/01/08 02:35:21;;;;;;;;;;;2.60;99.90;;;;;;5026139;28;20311;-69
2022/01/08 02:37:47;;;;;;;;;;;2.70;99.90;;;;;;5030697;28;19960;-72
2022/01/08 02:40:13;;;;;;;;;;;2.70;99.90;;;;;;5027810;28;19909;-68
2022/01/08 02:42:49;;;;;;;;;;;2.70;99.90;;;;;;5028607;28;19923;-69
2022/01/08 02:45:14;;;;;;;;;;;2.80;99.90;;;;;;5032761;28;19932;-70
2022/01/08 02:47:40;;;;;;;;;;;2.90;99.90;;;;;;5025685;28;19917;-69
2022/01/08 02:50:05;;;;;;;;;;;3.00;99.90;;;;;;5026991;28;20244;-69
2022/01/08 02:52:31;;;;;;;;;;;3.10;99.90;;;;;;5014649;28;20031;-69
2022/01/08 02:54:56;;;;;;;;;;;3.10;99.90;;;;;;5026524;28;19913;-71
2022/01/08 02:57:22;;;;;;;;;;;3.00;99.90;;;;;;5025827;28;19917;-70
2022/01/08 02:59:47;;;;;;;;;;;3.10;99.90;;;;;;5025073;28;19909;-69
2022/01/08 03:02:13;;;;;;;;;;;3.10;99.90;;;;;;5025124;28;20382;-70
2022/01/08 03:04:39;;;;;;;;;;;3.00;99.90;;;;;;5026413;28;20201;-68
2022/01/08 03:07:05;;;;;;;;;;;2.90;99.90;;;;;;5031414;28;19917;-68
2022/01/08 03:09:31;;;;;;;;;;;3.00;99.90;;;;;;5030956;28;19916;-69
2022/01/08 03:11:57;;;;;;;;;;;3.00;99.90;;;;;;5031308;28;19909;-70
2022/01/08 03:14:22;;;;;;;;;;;3.00;99.90;;;;;;5050722;28;19920;-69
2022/01/08 03:16:48;;;;;;;;;;;3.00;99.90;;;;;;5050104;28;19934;-68
2022/01/08 03:19:15;;;;;;;;;;;3.00;99.90;;;;;;5030771;28;19908;-70
2022/01/08 03:21:46;;;;;;;;;;;3.00;99.90;;;;;;5044220;28;20103;-68
2022/01/08 03:24:16;;;;;;;;;;;3.00;99.90;;;;;;5028800;28;19967;-68
2022/01/08 03:26:42;;;;;;;;;;;3.10;99.90;;;;;;5029073;28;19947;-70
2022/01/08 03:29:08;;;;;;;;;;;3.20;99.90;;;;;;5033879;28;19939;-70
2022/01/08 03:31:33;;;;;;;;;;;3.20;99.90;;;;;;5050878;28;19916;-68
2022/01/08 03:33:59;;;;;;;;;;;3.20;99.90;;;;;;5042791;28;19917;-69
2022/01/08 03:36:24;;;;;;;;;;;3.20;99.90;;;;;;5050354;28;19917;-70
2022/01/08 03:38:51;;;;;;;;;;;3.20;99.90;;;;;;5049193;28;19935;-68
2022/01/08 03:41:16;;;;;;;;;;;3.20;99.90;;;;;;5029453;28;20367;-70
2022/01/08 03:43:42;;;;;;;;;;;3.30;99.90;;;;;;5028744;28;19996;-68
2022/01/08 03:46:07;;;;;;;;;;;3.10;99.90;;;;;;5029063;28;20359;-70
2022/01/08 03:48:45;;;;;;;;;;;3.10;99.90;;;;;;5016218;28;20256;-69
2022/01/08 03:51:12;;;;;;;;;;;3.20;99.90;;;;;;5028273;28;19908;-71
2022/01/08 03:53:38;;;;;;;;;;;3.20;99.90;;;;;;5047828;28;20076;-70
2022/01/08 03:56:03;;;;;;;;;;;3.20;99.90;;;;;;5038587;28;20004;-69
2022/01/08 03:58:29;;;;;;;;;;;3.20;99.90;;;;;;5040185;28;20157;-69
2022/01/08 04:00:55;;;;;;;;;;;3.20;99.90;;;;;;5025546;28;19913;-70
2022/01/08 04:03:20;;;;;;;;;;;3.20;99.90;;;;;;5028048;28;19924;-69
2022/01/08 04:05:49;;;;;;;;;;;3.10;99.90;;;;;;5027553;28;19913;-69
2022/01/08 04:08:15;;;;;;;;;;;3.00;99.90;;;;;;5026463;28;19924;-69
2022/01/08 04:10:41;;;;;;;;;;;2.90;99.90;;;;;;5027357;28;20435;-70
2022/01/08 04:13:12;;;;;;;;;;;2.90;99.90;;;;;;5026916;28;19909;-68
2022/01/08 04:15:40;;;;;;;;;;;3.00;99.90;;;;;;5041820;28;20309;-69
2022/01/08 04:18:06;;;;;;;;;;;2.90;99.90;;;;;;5046741;28;19936;-69
2022/01/08 04:20:35;;;;;;;;;;;2.90;99.90;;;;;;5028132;28;19913;-67
2022/01/08 04:23:02;;;;;;;;;;;2.90;99.90;;;;;;5046274;28;20317;-70
2022/01/08 04:25:27;;;;;;;;;;;2.80;99.90;;;;;;5046509;28;19952;-70
2022/01/08 04:27:52;;;;;;;;;;;2.70;99.90;;;;;;5046556;28;19959;-70
2022/01/08 04:30:18;;;;;;;;;;;2.70;99.90;;;;;;5045314;28;19963;-68
2022/01/08 04:32:44;;;;;;;;;;;2.70;99.90;;;;;;5037279;28;19917;-70
2022/01/08 04:35:09;;;;;;;;;;;2.70;99.90;;;;;;5027207;28;20401;-69
2022/01/08 04:37:35;;;;;;;;;;;2.50;99.90;;;;;;5008752;28;19978;-67
2022/01/08 04:40:00;;;;;;;;;;;2.50;99.90;;;;;;5008244;28;20011;-67
2022/01/08 04:42:26;;;;;;;;;;;2.40;99.90;;;;;;5026886;28;19924;-68
2022/01/08 04:44:53;;;;;;;;;;;2.40;99.90;;;;;;5025930;28;20297;-68
2022/01/08 04:47:18;;;;;;;;;;;2.40;99.90;;;;;;5026499;28;19913;-70
2022/01/08 04:49:44;;;;;;;;;;;2.40;99.90;;;;;;5025409;28;19909;-69
2022/01/08 04:52:09;;;;;;;;;;;2.30;99.90;;;;;;5026432;28;19923;-69
2022/01/08 04:54:35;;;;;;;;;;;2.40;99.90;;;;;;5008055;28;19957;-69
2022/01/08 04:57:00;;;;;;;;;;;2.40;99.90;;;;;;5024983;28;19921;-70
2022/01/08 04:59:26;;;;;;;;;;;2.40;99.90;;;;;;5045204;28;20392;-68
2022/01/08 05:01:51;;;;;;;;;;;2.40;99.90;;;;;;5037698;28;19913;-68
2022/01/08 05:04:16;;;;;;;;;;;2.40;99.90;;;;;;5037351;28;19909;-68
2022/01/08 05:06:42;;;;;;;;;;;2.40;99.90;;;;;;5034350;28;20445;-69
2022/01/08 05:09:08;;;;;;;;;;;2.40;99.90;;;;;;5028439;28;19967;-72
2022/01/08 05:11:33;;;;;;;;;;;2.30;99.90;;;;;;5029583;28;19956;-68
2022/01/08 05:13:59;;;;;;;;;;;2.30;99.90;;;;;;5009828;28;20008;-68
2022/01/08 05:16:26;;;;;;;;;;;2.30;99.90;;;;;;5026023;28;19920;-69
2022/01/08 05:18:54;;;;;;;;;;;2.30;99.90;;;;;;5007383;28;19913;-68
2022/01/08 05:21:25;;;;;;;;;;;2.40;99.90;;;;;;5025264;28;20051;-68
2022/01/08 05:23:51;;;;;;;;;;;2.50;99.90;;;;;;5026216;28;20483;-69
2022/01/08 05:26:17;;;;;;;;;;;2.50;99.90;;;;;;5028626;28;19924;-69
2022/01/08 05:28:44;;;;;;;;;;;2.50;99.90;;;;;;5044986;28;19913;-69
2022/01/08 05:31:10;;;;;;;;;;;2.50;99.90;;;;;;5044731;28;19917;-68
2022/01/08 05:33:35;;;;;;;;;;;2.50;99.90;;;;;;5028286;28;20283;-68
2022/01/08 05:36:01;;;;;;;;;;;2.60;99.90;;;;;;5025311;28;20051;-70
2022/01/08 05:38:26;;;;;;;;;;;2.50;99.90;;;;;;5045912;28;19909;-71
2022/01/08 05:40:51;;;;;;;;;;;2.60;99.90;;;;;;5047076;28;19912;-70
2022/01/08 05:43:17;;;;;;;;;;;2.60;99.90;;;;;;5047617;28;19909;-70
2022/01/08 05:45:42;;;;;;;;;;;2.70;99.90;;;;;;5045869;28;20062;-69
2022/01/08 05:48:09;;;;;;;;;;;2.70;99.90;;;;;;5029540;28;19956;-68
2022/01/08 05:50:34;;;;;;;;;;;2.80;99.90;;;;;;5037489;28;20214;-70
2022/01/08 05:53:00;;;;;;;;;;;2.90;99.90;;;;;;5029847;28;19910;-68
2022/01/08 05:55:25;;;;;;;;;;;3.10;99.90;;;;;;5029840;28;19936;-69
2022/01/08 05:57:51;;;;;;;;;;;3.10;99.90;;;;;;5039644;28;20001;-69
2022/01/08 06:00:16;;;;;;;;;;;3.10;99.90;;;;;;5016219;28;20349;-69
2022/01/08 06:02:42;;;;;;;;;;;3.10;99.90;;;;;;5018102;28;19971;-67
2022/01/08 06:05:08;;;;;;;;;;;3.00;99.90;;;;;;5015592;28;19917;-70
2022/01/08 06:07:33;;;;;;;;;;;3.00;99.90;;;;;;5030556;28;19935;-69
2022/01/08 06:09:59;;;;;;;;;;;2.90;99.90;;;;;;5022902;28;20104;-68
2022/01/08 06:12:24;;;;;;;;;;;3.00;99.90;;;;;;5025514;28;19909;-70
2022/01/08 06:14:50;;;;;;;;;;;3.00;99.90;;;;;;5013067;28;20012;-68
2022/01/08 06:17:15;;;;;;;;;;;3.10;99.90;;;;;;5039712;28;19923;-70
2022/01/08 06:19:41;;;;;;;;;;;3.10;99.90;;;;;;5043765;28;19962;-69
2022/01/08 06:22:06;;;;;;;;;;;3.00;99.90;;;;;;5006724;28;20027;-69
2022/01/08 06:24:32;;;;;;;;;;;3.00;99.90;;;;;;5025477;28;19963;-71
2022/01/08 06:26:57;;;;;;;;;;;3.00;99.90;;;;;;5034596;28;19917;-72
2022/01/08 06:29:23;;;;;;;;;;;2.90;99.90;;;;;;5043794;28;20275;-70
2022/01/08 06:31:48;;;;;;;;;;;2.90;99.90;;;;;;5040350;28;19935;-70
2022/01/08 06:34:14;;;;;;;;;;;2.90;99.90;;;;;;5023224;28;19971;-72
2022/01/08 06:36:39;;;;;;;;;;;2.80;99.90;;;;;;5024466;28;19913;-68
2022/01/08 06:39:05;;;;;;;;;;;2.80;99.90;;;;;;5023438;28;19921;-68
2022/01/08 06:41:30;;;;;;;;;;;2.70;99.90;;;;;;5027716;28;19964;-67
2022/01/08 06:43:58;;;;;;;;;;;2.70;99.90;;;;;;5026522;28;19954;-70
2022/01/08 06:46:24;;;;;;;;;;;2.70;99.90;;;;;;5022160;28;20453;-69
2022/01/08 06:48:50;;;;;;;;;;;2.60;99.90;;;;;;5015723;28;19955;-68
2022/01/08 06:51:15;;;;;;;;;;;2.60;99.90;;;;;;5021765;28;20018;-69
2022/01/08 06:53:41;;;;;;;;;;;2.50;99.90;;;;;;5015093;28;20393;-71
2022/01/08 06:56:06;;;;;;;;;;;2.50;99.90;;;;;;5025524;28;19912;-69
2022/01/08 06:58:32;;;;;;;;;;;2.60;99.90;;;;;;5034432;28;19921;-69
2022/01/08 07:00:58;;;;;;;;;;;2.50;99.90;;;;;;5019152;28;19959;-69
2022/01/08 07:03:23;;;;;;;;;;;2.60;99.90;;;;;;5034627;28;20198;-69
2022/01/08 07:05:48;;;;;;;;;;;2.50;99.90;;;;;;5030820;28;19917;-71
2022/01/08 07:08:14;;;;;;;;;;;2.60;99.90;;;;;;5024094;28;19936;-71
2022/01/08 07:10:40;;;;;;;;;;;2.50;99.90;;;;;;5021824;28;20271;-73
2022/01/08 07:13:06;;;;;;;;;;;2.50;99.90;;;;;;5026141;28;20307;-70
2022/01/08 07:15:31;;;;;;;;;;;2.50;99.90;;;;;;5019983;28;19914;-72
2022/01/08 07:17:57;;;;;;;;;;;2.50;99.90;;;;;;5018550;28;20363;-70
2022/01/08 07:20:22;;;;;;;;;;;2.50;99.90;;;;;;5018521;28;19956;-68
2022/01/08 07:22:48;;;;;;;;;;;2.50;99.90;;;;;;5011946;28;19917;-69
2022/01/08 07:25:14;;;;;;;;;;;2.50;99.90;;;;;;5009402;28;20359;-70
2022/01/08 07:27:40;;;;;;;;;;;2.50;99.90;;;;;;5016795;28;19977;-72
2022/01/08 07:30:06;;;;;;;;;;;2.50;99.90;;;;;;5014231;28;20015;-73
2022/01/08 07:32:31;;;;;;;;;;;2.50;99.90;;;;;;5013169;28;20488;-72
2022/01/08 07:34:57;;;;;;;;;;;2.50;99.90;;;;;;5018562;28;19909;-69
2022/01/08 07:37:22;;;;;;;;;;;2.50;99.90;;;;;;5013732;28;20333;-69
2022/01/08 07:39:48;;;;;;;;;;;2.50;99.90;;;;;;5008096;28;19967;-71
2022/01/08 07:42:14;;;;;;;;;;;2.50;99.90;;;;;;5009014;28;20430;-69
2022/01/08 07:44:39;;;;;;;;;;;2.60;99.90;;;;;;5021833;28;19913;-70
2022/01/08 07:47:05;;;;;;;;;;;2.70;99.90;;;;;;5024888;28;20337;-68
2022/01/08 07:49:31;;;;;;;;;;;2.70;99.90;;;;;;5010873;28;19933;-69
2022/01/08 07:51:56;;;;;;;;;;;2.60;99.90;;;;;;5011068;28;19913;-69
2022/01/08 07:54:21;;;;;;;;;;;2.70;99.90;;;;;;5016586;28;19925;-75
2022/01/08 07:56:47;;;;;;;;;;;2.70;99.90;;;;;;5019113;28;19909;-73
2022/01/08 07:59:12;;;;;;;;;;;2.70;99.90;;;;;;5034420;28;19913;-70
2022/01/08 08:01:38;;;;;;;;;;;2.70;99.90;;;;;;5016804;28;20039;-69
2022/01/08 08:04:03;;;;;;;;;;;2.80;99.90;;;;;;5016478;28;19917;-69
2022/01/08 08:06:29;;;;;;;;;;;2.70;99.90;;;;;;5016906;28;20291;-70
2022/01/08 08:08:54;;;;;;;;;;;2.70;99.90;;;;;;5024120;28;19921;-69
2022/01/08 08:11:20;;;;;;;;;;;2.80;99.90;;;;;;5031518;28;19909;-74
2022/01/08 08:13:45;;;;;;;;;;;2.80;99.90;;;;;;5008781;28;19917;-72
2022/01/08 08:16:11;;;;;;;;;;;2.80;99.90;;;;;;5016331;28;20200;-68
2022/01/08 08:18:36;;;;;;;;;;;2.80;99.90;;;;;;5017010;28;19909;-69
2022/01/08 08:21:02;;;;;;;;;;;2.70;99.90;;;;;;5021981;28;19909;-71
2022/01/08 08:23:27;;;;;;;;;;;2.80;99.90;;;;;;5015352;28;19991;-70
2022/01/08 08:25:53;;;;;;;;;;;2.80;99.90;;;;;;5022819;28;19955;-68
2022/01/08 08:28:18;;;;;;;;;;;2.70;99.90;;;;;;5028865;28;19916;-70
2022/01/08 08:30:44;;;;;;;;;;;2.80;99.90;;;;;;5020225;28;19944;-70
2022/01/08 08:33:09;;;;;;;;;;;2.80;99.90;;;;;;5031011;28;20149;-71
2022/01/08 08:35:35;;;;;;;;;;;2.80;99.90;;;;;;5040188;28;20173;-69
2022/01/08 08:38:01;;;;;;;;;;;2.80;99.90;;;;;;5049030;28;20386;-69
2022/01/08 08:40:26;;;;;;;;;;;2.80;99.90;;;;;;5029874;28;19909;-70
2022/01/08 08:42:52;;;;;;;;;;;2.80;99.90;;;;;;5018401;28;19963;-69
2022/01/08 08:45:17;;;;;;;;;;;2.90;99.90;;;;;;5022684;28;19941;-70
2022/01/08 08:47:43;;;;;;;;;;;2.90;99.90;;;;;;5024705;28;20307;-69
2022/01/08 08:50:09;;;;;;;;;;;2.90;99.90;;;;;;5025234;28;20019;-69
2022/01/08 08:52:34;;;;;;;;;;;2.90;99.90;;;;;;5024979;28;19914;-68
2022/01/08 08:55:00;;;;;;;;;;;3.00;99.90;;;;;;5022082;28;19916;-67
2022/01/08 08:57:25;;;;;;;;;;;3.00;99.90;;;;;;5019030;28;20389;-70
2022/01/08 08:59:51;;;;;;;;;;;3.00;99.90;;;;;;5023828;28;19917;-68
2022/01/08 09:02:16;;;;;;;;;;;3.10;99.90;;;;;;5041961;28;20330;-69
2022/01/08 09:04:42;;;;;;;;;;;3.10;99.90;;;;;;5047417;28;20285;-68
2022/01/08 09:07:08;;;;;;;;;;;3.10;99.90;;;;;;5035683;28;19959;-70
2022/01/08 09:09:33;;;;;;;;;;;3.10;99.90;;;;;;5026508;28;19909;-70
2022/01/08 09:11:59;;;;;;;;;;;3.10;99.90;;;;;;5027019;28;19913;-68
2022/01/08 09:14:25;;;;;;;;;;;3.10;99.90;;;;;;5012287;28;19932;-68
2022/01/08 09:16:52;;;;;;;;;;;3.10;99.90;;;;;;5046377;28;19912;-68
2022/01/08 09:19:18;;;;;;;;;;;3.10;99.90;;;;;;5041760;28;20322;-68
2022/01/08 09:21:44;;;;;;;;;;;3.20;99.90;;;;;;5027087;28;20359;-67
2022/01/08 09:24:10;;;;;;;;;;;3.30;99.90;;;;;;5027167;28;19977;-68
2022/01/08 09:26:35;;;;;;;;;;;3.30;99.90;;;;;;5010116;28;19921;-69
2022/01/08 09:29:01;;;;;;;;;;;3.30;99.90;;;;;;5028517;28;19944;-69
2022/01/08 09:31:26;;;;;;;;;;;3.30;99.90;;;;;;5044583;28;20022;-67
2022/01/08 09:33:52;;;;;;;;;;;3.40;99.90;;;;;;5035056;28;19913;-71
2022/01/08 09:36:17;;;;;;;;;;;3.40;99.90;;;;;;5017001;28;19931;-70
2022/01/08 09:38:43;;;;;;;;;;;3.40;99.90;;;;;;5033494;28;19913;-69
2022/01/08 09:41:09;;;;;;;;;;;3.40;99.90;;;;;;5029570;28;20280;-68
2022/01/08 09:43:34;;;;;;;;;;;3.40;99.90;;;;;;5028202;28;20375;-69
2022/01/08 09:46:00;;;;;;;;;;;3.50;99.90;;;;;;5041993;28;19916;-71
2022/01/08 09:48:25;;;;;;;;;;;3.50;99.90;;;;;;5045679;28;19970;-68
2022/01/08 09:50:51;;;;;;;;;;;3.50;99.90;;;;;;5045771;28;19909;-68
2022/01/08 09:53:16;;;;;;;;;;;3.50;99.90;;;;;;5046485;28;20024;-70
2022/01/08 09:55:42;;;;;;;;;;;3.50;99.90;;;;;;5045215;28;19910;-69
2022/01/08 09:58:07;;;;;;;;;;;3.50;99.90;;;;;;5026895;28;20325;-69
2022/01/08 10:00:34;;;;;;;;;;;3.60;99.90;;;;;;5027028;28;19920;-69
2022/01/08 10:03:16;;;;;;;;;;;3.60;99.90;;;;;;5009379;28;20019;-70
2022/01/08 10:05:42;;;;;;;;;;;3.50;99.90;;;;;;5027252;28;19932;-70
2022/01/08 10:08:09;;;;;;;;;;;3.50;99.90;;;;;;5029993;28;19913;-69
2022/01/08 10:10:35;;;;;;;;;;;3.50;99.90;;;;;;5046315;28;19920;-69
2022/01/08 10:13:01;;;;;;;;;;;3.60;99.90;;;;;;5046905;28;19909;-69
2022/01/08 10:18:40;;;;;;;;;;;3.60;99.90;;;;;;5026718;28;19920;-70
2022/01/08 10:21:20;;;;;;;;;;;3.60;99.90;;;;;;5024112;28;20278;-69
2022/01/08 10:23:47;;;;;;;;;;;3.60;99.90;;;;;;5020454;28;20338;-69
2022/01/08 10:26:16;;;;;;;;;;;3.60;99.90;;;;;;5032361;28;19913;-70
2022/01/08 10:28:43;;;;;;;;;;;3.60;99.90;;;;;;5032812;28;19909;-70
2022/01/08 10:31:14;;;;;;;;;;;3.60;99.90;;;;;;5028759;28;20111;-69
2022/01/08 10:33:43;;;;;;;;;;;3.60;99.90;;;;;;5027240;28;20284;-68
2022/01/08 10:36:08;;;;;;;;;;;3.60;99.90;;;;;;5027145;28;19915;-68
2022/01/08 10:38:34;;;;;;;;;;;3.60;99.90;;;;;;5030629;28;19913;-68
2022/01/08 10:41:00;;;;;;;;;;;3.70;99.90;;;;;;5039735;28;20546;-69
2022/01/08 10:43:27;;;;;;;;;;;3.70;99.90;;;;;;5028553;28;19920;-69
2022/01/08 10:45:53;;;;;;;;;;;3.70;99.90;;;;;;5031885;28;20422;-68
2022/01/08 10:48:25;;;;;;;;;;;3.80;99.90;;;;;;5035874;28;19920;-68
2022/01/08 10:50:51;;;;;;;;;;;3.80;99.90;;;;;;5024374;28;19917;-71
2022/01/08 10:53:17;;;;;;;;;;;3.80;99.90;;;;;;5042062;28;19993;-68
2022/01/08 10:55:42;;;;;;;;;;;3.90;99.90;;;;;;5030368;28;19916;-69
2022/01/08 10:58:07;;;;;;;;;;;4.00;99.90;;;;;;5040759;28;20444;-68
2022/01/08 11:00:33;;;;;;;;;;;4.10;99.90;;;;;;5040681;28;19910;-70
2022/01/08 11:02:58;;;;;;;;;;;4.20;99.90;;;;;;5030124;28;19992;-69
2022/01/08 11:05:24;;;;;;;;;;;4.20;99.90;;;;;;5030358;28;19913;-70
2022/01/08 11:07:49;;;;;;;;;;;4.20;99.90;;;;;;5028263;28;20391;-69
2022/01/08 11:10:18;;;;;;;;;;;4.30;99.90;;;;;;5047022;28;20286;-68
2022/01/08 11:12:45;;;;;;;;;;;4.30;99.90;;;;;;5044919;28;20062;-69
2022/01/08 11:17:48;;;;;;;;;;;4.50;99.90;;;;;;5045970;28;19956;-69
2022/01/08 11:20:14;;;;;;;;;;;4.60;99.90;;;;;;5029371;28;19909;-69
2022/01/08 11:22:44;;;;;;;;;;;4.50;99.90;;;;;;5028196;28;19916;-69
2022/01/08 11:25:16;;;;;;;;;;;4.60;99.90;;;;;;5045611;28;19920;-70
2022/01/08 11:28:02;;;;;;;;;;;4.40;99.90;;;;;;5031494;28;19913;-69
2022/01/08 11:30:29;;;;;;;;;;;4.40;99.90;;;;;;5031394;28;19917;-72
2022/01/08 11:33:00;;;;;;;;;;;4.40;99.90;;;;;;5038074;28;20289;-69
2022/01/08 11:35:27;;;;;;;;;;;4.50;99.90;;;;;;5036218;28;19928;-69
2022/01/08 11:37:55;;;;;;;;;;;4.50;99.90;;;;;;5033043;28;19952;-69
2022/01/08 11:40:21;;;;;;;;;;;4.50;99.90;;;;;;5015543;28;19971;-70
2022/01/08 11:42:47;;;;;;;;;;;4.40;99.90;;;;;;5028429;28;19921;-70
2022/01/08 11:45:25;;;;;;;;;;;4.30;99.90;;;;;;5010737;28;19913;-70
2022/01/08 11:47:52;;;;;;;;;;;4.30;99.90;;;;;;5018631;28;19925;-69
2022/01/08 11:50:19;;;;;;;;;;;4.40;99.90;;;;;;5019473;28;19909;-69
2022/01/08 11:52:44;;;;;;;;;;;4.30;99.90;;;;;;5004795;28;19909;-70
2022/01/08 11:55:10;;;;;;;;;;;4.40;99.90;;;;;;5025793;28;19920;-68
2022/01/08 11:57:36;;;;;;;;;;;4.40;99.90;;;;;;5023241;28;19917;-69
2022/01/08 12:00:03;;;;;;;;;;;4.40;99.90;;;;;;5019798;28;20410;-70
2022/01/08 12:02:42;;;;;;;;;;;4.50;99.90;;;;;;5024365;28;20000;-69
2022/01/08 12:05:09;;;;;;;;;;;4.40;99.90;;;;;;5025910;28;20366;-69
2022/01/08 12:07:41;;;;;;;;;;;4.50;99.90;;;;;;5024611;28;19920;-69
2022/01/08 12:10:10;;;;;;;;;;;4.50;99.90;;;;;;5036242;28;20030;-68
2022/01/08 12:12:43;;;;;;;;;;;4.50;99.90;;;;;;5021094;28;20012;-69
2022/01/08 12:15:09;;;;;;;;;;;4.40;99.90;;;;;;5044660;28;19916;-71
2022/01/08 12:17:50;;;;;;;;;;;4.40;99.90;;;;;;5012321;28;19917;-70
2022/01/08 12:20:36;;;;;;;;;;;4.30;99.90;;;;;;5017140;28;20397;-68
2022/01/08 12:23:20;;;;;;;;;;;4.30;99.90;;;;;;5015642;28;20358;-69
2022/01/08 12:25:46;;;;;;;;;;;4.30;99.90;;;;;;5019066;28;19924;-69
2022/01/08 12:28:31;;;;;;;;;;;4.30;99.90;;;;;;5014288;28;19910;-72
2022/01/08 12:31:16;;;;;;;;;;;4.30;99.90;;;;;;5010242;28;19930;-66
2022/01/08 12:33:42;;;;;;;;;;;4.30;99.90;;;;;;5027832;28;20366;-69
2022/01/08 12:36:25;;;;;;;;;;;4.40;99.90;;;;;;5021573;28;19924;-70
2022/01/08 12:39:00;;;;;;;;;;;4.30;99.90;;;;;;5018950;28;19909;-68
2022/01/08 12:41:25;;;;;;;;;;;4.30;99.90;;;;;;5020661;28;20567;-70
2022/01/08 12:43:51;;;;;;;;;;;4.30;99.90;;;;;;5023797;28;19953;-69
2022/01/08 12:46:17;;;;;;;;;;;4.20;99.90;;;;;;5017288;28;20422;-70
2022/01/08 12:49:01;;;;;;;;;;;4.20;99.90;;;;;;5018462;28;19931;-72
2022/01/08 12:51:40;;;;;;;;;;;4.20;99.90;;;;;;5010063;28;19909;-69
2022/01/08 12:54:05;;;;;;;;;;;4.20;99.90;;;;;;5012218;28;19941;-70
2022/01/08 12:56:31;;;;;;;;;;;4.10;99.90;;;;;;5019210;28;19945;-71
2022/01/08 12:58:57;;;;;;;;;;;4.20;99.90;;;;;;5021205;28;19919;-70
2022/01/08 13:01:23;;;;;;;;;;;4.20;99.90;;;;;;5021218;28;20351;-70
2022/01/08 13:03:56;;;;;;;;;;;4.10;99.90;;;;;;5042266;28;19909;-70
2022/01/08 13:06:23;;;;;;;;;;;4.10;99.90;;;;;;5020259;28;19913;-71
2022/01/08 13:08:49;;;;;;;;;;;4.10;99.90;;;;;;5004807;28;20076;-71
2022/01/08 13:11:16;;;;;;;;;;;4.10;99.90;;;;;;5025781;28;19993;-71
2022/01/08 13:13:47;;;;;;;;;;;4.10;99.90;;;;;;5020416;28;19920;-71
2022/01/08 13:16:32;;;;;;;;;;;4.20;99.90;;;;;;5008861;28;19941;-74
2022/01/08 13:18:59;;;;;;;;;;;4.20;99.90;;;;;;5024489;28;20049;-72
2022/01/08 13:21:28;;;;;;;;;;;4.20;99.90;;;;;;5017270;28;19917;-70
2022/01/08 13:23:53;;;;;;;;;;;4.20;99.90;;;;;;5038302;28;20346;-74
2022/01/08 13:26:26;;;;;;;;;;;4.20;99.90;;;;;;5029053;28;19948;-69
2022/01/08 13:28:52;;;;;;;;;;;4.20;99.90;;;;;;5026471;28;20285;-70
2022/01/08 13:31:17;;;;;;;;;;;4.20;99.90;;;;;;5026012;28;19993;-71
2022/01/08 13:33:53;;;;;;;;;;;4.20;99.90;;;;;;5025500;28;19913;-71
2022/01/08 13:36:18;;;;;;;;;;;4.20;99.90;;;;;;5007536;28;19972;-74
2022/01/08 13:38:44;;;;;;;;;;;4.20;99.90;;;;;;5025381;28;19913;-71
2022/01/08 13:41:11;;;;;;;;;;;4.20;99.90;;;;;;5011435;28;20301;-71
2022/01/08 13:43:54;;;;;;;;;;;4.20;99.90;;;;;;5038804;28;19959;-69
2022/01/08 13:46:20;;;;;;;;;;;4.20;99.90;;;;;;5025571;28;19913;-71
2022/01/08 13:48:46;;;;;;;;;;;4.30;99.90;;;;;;5034662;28;19919;-67
2022/01/08 13:51:11;;;;;;;;;;;4.30;99.90;;;;;;5030968;28;19948;-70
2022/01/08 13:53:37;;;;;;;;;;;4.30;99.90;;;;;;5018270;28;20465;-72
2022/01/08 13:56:03;;;;;;;;;;;4.30;99.90;;;;;;5016803;28;19919;-70
2022/01/08 13:58:29;;;;;;;;;;;4.30;99.90;;;;;;5011574;28;20000;-73
2022/01/08 14:00:59;;;;;;;;;;;4.30;99.90;;;;;;5013514;28;20379;-70
2022/01/08 14:03:26;;;;;;;;;;;4.30;99.90;;;;;;5016017;28;20004;-72
2022/01/08 14:05:56;;;;;;;;;;;4.30;99.90;;;;;;5013670;28;19918;-68
2022/01/08 14:08:21;;;;;;;;;;;4.40;99.90;;;;;;5011733;28;20386;-71
2022/01/08 14:10:48;;;;;;;;;;;4.40;99.90;;;;;;5021023;28;19996;-70
2022/01/08 14:13:18;;;;;;;;;;;4.40;99.90;;;;;;5015297;28;20036;-72
2022/01/08 14:15:45;;;;;;;;;;;4.40;99.90;;;;;;5015649;28;19935;-72
2022/01/08 14:18:12;;;;;;;;;;;4.40;99.90;;;;;;5016230;28;19956;-72
2022/01/08 14:20:37;;;;;;;;;;;4.40;99.90;;;;;;5014471;28;19917;-70
2022/01/08 14:23:17;;;;;;;;;;;4.40;99.90;;;;;;5012976;28;20371;-72
2022/01/08 14:25:42;;;;;;;;;;;4.40;99.90;;;;;;5009002;28;19925;-71
2022/01/08 14:28:18;;;;;;;;;;;4.50;99.90;;;;;;5021504;28;19951;-71
2022/01/08 14:30:44;;;;;;;;;;;4.50;99.90;;;;;;5017498;28;19952;-71
2022/01/08 14:33:09;;;;;;;;;;;4.50;99.90;;;;;;5015534;28;19949;-71
2022/01/08 14:35:35;;;;;;;;;;;4.50;99.90;;;;;;5016457;28;19909;-71
2022/01/08 14:38:01;;;;;;;;;;;4.50;99.90;;;;;;5009543;28;19982;-71
2022/01/08 14:40:31;;;;;;;;;;;4.60;99.90;;;;;;5016838;28;19984;-69
2022/01/08 14:43:00;;;;;;;;;;;4.60;99.90;;;;;;5023698;28;19917;-73
2022/01/08 14:45:26;;;;;;;;;;;4.60;99.90;;;;;;5025636;28;19909;-70
2022/01/08 14:47:52;;;;;;;;;;;4.60;99.90;;;;;;5027353;28;20008;-70
2022/01/08 14:50:22;;;;;;;;;;;4.50;99.90;;;;;;5025290;28;19988;-69